Orbital elements of COSMOS 2251 DEB
| Launched | 15 June 1993 |
| Flight ended | – |
| Launch site | Plesetsk Missile and Space Complex, Russia |
| Owner | Commonwealth of Independent States (former USSR) |
| NORAD ID | 35670 |
| Date fetched |
Epoch osculation |
Inc. [°] |
Ecc. | RA asc node [hr] |
Arg Peri. [°] |
Mean anom [°] |
Mean motion [rev/day] |
Abs. mag |
| Date fetched |
Epoch osculation |
Inc. [°] |
Ecc. | RA asc node [hr] |
Arg Peri. [°] |
Mean anom [°] |
Mean motion [rev/day] |
Abs. mag |
| 2026 May 03 17:57 | 2026 Apr 30 07:54:24 | 73.8893 | 0.00295 | 9.4602 | 71.6497 | 288.7891 | 14.98812 | – |
| 2026 May 02 17:57 | 2026 Apr 30 07:54:24 | 73.8893 | 0.00295 | 9.4602 | 71.6497 | 288.7891 | 14.98812 | – |
| 2026 May 01 17:56 | 2026 Apr 30 07:54:24 | 73.8893 | 0.00295 | 9.4602 | 71.6497 | 288.7891 | 14.98812 | – |
| 2026 Apr 30 17:56 | 2026 Apr 30 07:54:24 | 73.8893 | 0.00295 | 9.4602 | 71.6497 | 288.7891 | 14.98812 | – |
| 2026 Apr 29 17:57 | 2026 Apr 21 20:26:45 | 73.8907 | 0.00297 | 10.6166 | 91.6984 | 288.7891 | 14.98812 | – |
| 2026 Apr 28 17:56 | 2026 Apr 21 20:26:45 | 73.8907 | 0.00297 | 10.6166 | 91.6984 | 288.7891 | 14.98812 | – |
| 2026 Apr 27 17:58 | 2026 Apr 21 20:26:45 | 73.8907 | 0.00297 | 10.6166 | 91.6984 | 288.7891 | 14.98812 | – |
| 2026 Apr 26 17:58 | 2026 Apr 21 20:26:45 | 73.8907 | 0.00297 | 10.6166 | 91.6984 | 288.7891 | 14.98812 | – |
| 2026 Apr 25 17:58 | 2026 Apr 21 20:26:45 | 73.8907 | 0.00297 | 10.6166 | 91.6984 | 288.7891 | 14.98812 | – |
| 2026 Apr 24 17:59 | 2026 Apr 21 20:26:45 | 73.8907 | 0.00297 | 10.6166 | 91.6984 | 288.7891 | 14.98812 | – |
| 2026 Apr 23 17:57 | 2026 Apr 17 10:42:02 | 73.8922 | 0.00297 | 11.2175 | 102.3536 | 288.7891 | 14.98812 | – |
| 2026 Apr 22 17:57 | 2026 Apr 17 10:42:02 | 73.8922 | 0.00297 | 11.2175 | 102.3536 | 288.7891 | 14.98812 | – |
| 2026 Apr 21 17:57 | 2026 Apr 17 10:42:02 | 73.8922 | 0.00297 | 11.2175 | 102.3536 | 288.7891 | 14.98812 | – |
| 2026 Apr 20 17:57 | 2026 Apr 17 10:42:02 | 73.8922 | 0.00297 | 11.2175 | 102.3536 | 288.7891 | 14.98812 | – |
| 2026 Apr 19 17:58 | 2026 Apr 17 10:42:02 | 73.8922 | 0.00297 | 11.2175 | 102.3536 | 288.7891 | 14.98812 | – |
| 2026 Apr 18 17:56 | 2026 Apr 11 12:05:54 | 73.8927 | 0.00300 | 12.0276 | 116.5355 | 288.7891 | 14.98812 | – |
| 2026 Apr 16 17:57 | 2026 Apr 11 12:05:54 | 73.8927 | 0.00300 | 12.0276 | 116.5355 | 288.7891 | 14.98812 | – |
| 2026 Apr 14 17:57 | 2026 Apr 11 12:05:54 | 73.8927 | 0.00300 | 12.0276 | 116.5355 | 288.7891 | 14.98812 | – |
| 2026 Apr 13 17:57 | 2026 Apr 11 12:05:54 | 73.8927 | 0.00300 | 12.0276 | 116.5355 | 288.7891 | 14.98812 | – |
| 2026 Apr 12 17:57 | 2026 Apr 07 23:10:24 | 73.8925 | 0.00305 | 12.5100 | 124.6581 | 288.7891 | 14.98812 | – |
| 2026 Apr 11 17:57 | 2026 Apr 07 23:10:24 | 73.8925 | 0.00305 | 12.5100 | 124.6581 | 288.7891 | 14.98812 | – |
| 2026 Apr 10 17:58 | 2026 Apr 07 23:10:24 | 73.8925 | 0.00305 | 12.5100 | 124.6581 | 288.7891 | 14.98812 | – |
| 2026 Apr 09 18:01 | 2026 Apr 07 23:10:24 | 73.8925 | 0.00305 | 12.5100 | 124.6581 | 288.7891 | 14.98812 | – |
| 2026 Apr 08 17:57 | 2026 Apr 07 23:10:24 | 73.8925 | 0.00305 | 12.5100 | 124.6581 | 288.7891 | 14.98812 | – |
| 2026 Apr 07 17:57 | 2026 Apr 02 00:32:52 | 73.8936 | 0.00312 | 13.3200 | 139.0188 | 288.7891 | 14.98812 | – |
| 2026 Apr 06 17:57 | 2026 Apr 02 00:32:52 | 73.8936 | 0.00312 | 13.3200 | 139.0188 | 288.7891 | 14.98812 | – |